sensor_id;sensor_type;location;lat;lon;timestamp;P1;durP1;ratioP1;P2;durP2;ratioP2
32451;SDS011;45528;52.102;5.242;2023-05-10T00:00:14;57.2;;;26.8;;
32451;SDS011;45528;52.102;5.242;2023-05-10T00:01:51;58.0;;;28.8;;
32451;SDS011;45528;52.102;5.242;2023-05-10T00:05:03;62.0;;;28.1;;
32451;SDS011;45528;52.102;5.242;2023-05-10T00:06:40;56.3;;;27.7;;
32451;SDS011;45528;52.102;5.242;2023-05-10T00:08:16;62.0;;;28.2;;
32451;SDS011;45528;52.102;5.242;2023-05-10T00:11:29;61.5;;;28.4;;
32451;SDS011;45528;52.102;5.242;2023-05-10T00:13:05;76.11;;;30.0;;
32451;SDS011;45528;52.102;5.242;2023-05-10T00:14:41;55.1;;;28.8;;
32451;SDS011;45528;52.102;5.242;2023-05-10T00:17:53;71.5;;;30.9;;
32451;SDS011;45528;52.102;5.242;2023-05-10T00:19:29;69.11;;;29.8;;
32451;SDS011;45528;52.102;5.242;2023-05-10T00:21:05;66.1;;;29.8;;
32451;SDS011;45528;52.102;5.242;2023-05-10T00:22:41;66.6;;;30.7;;
32451;SDS011;45528;52.102;5.242;2023-05-10T00:25:54;56.3;;;29.1;;
32451;SDS011;45528;52.102;5.242;2023-05-10T00:27:30;78.5;;;32.4;;
32451;SDS011;45528;52.102;5.242;2023-05-10T00:29:06;63.4;;;30.5;;
32451;SDS011;45528;52.102;5.242;2023-05-10T00:32:18;66.8;;;30.6;;
32451;SDS011;45528;52.102;5.242;2023-05-10T00:33:54;55.0;;;31.0;;
32451;SDS011;45528;52.102;5.242;2023-05-10T00:35:31;66.8;;;30.8;;
32451;SDS011;45528;52.102;5.242;2023-05-10T00:38:44;61.8;;;31.2;;
32451;SDS011;45528;52.102;5.242;2023-05-10T00:40:20;68.91;;;31.6;;
32451;SDS011;45528;52.102;5.242;2023-05-10T00:41:56;73.91;;;31.5;;
32451;SDS011;45528;52.102;5.242;2023-05-10T00:45:08;67.2;;;32.71;;
32451;SDS011;45528;52.102;5.242;2023-05-10T00:46:44;62.2;;;32.1;;
32451;SDS011;45528;52.102;5.242;2023-05-10T00:48:21;62.2;;;32.1;;
32451;SDS011;45528;52.102;5.242;2023-05-10T00:49:58;59.1;;;31.5;;
32451;SDS011;45528;52.102;5.242;2023-05-10T00:53:10;72.41;;;33.3;;
32451;SDS011;45528;52.102;5.242;2023-05-10T00:54:46;65.5;;;32.5;;
32451;SDS011;45528;52.102;5.242;2023-05-10T00:56:22;67.5;;;33.4;;
32451;SDS011;45528;52.102;5.242;2023-05-10T00:59:35;76.2;;;33.6;;
32451;SDS011;45528;52.102;5.242;2023-05-10T01:01:11;69.8;;;32.0;;
32451;SDS011;45528;52.102;5.242;2023-05-10T01:02:49;74.61;;;33.21;;
32451;SDS011;45528;52.102;5.242;2023-05-10T01:06:01;87.5;;;33.71;;
32451;SDS011;45528;52.102;5.242;2023-05-10T01:07:37;94.1;;;36.21;;
32451;SDS011;45528;52.102;5.242;2023-05-10T01:09:13;68.0;;;33.1;;
32451;SDS011;45528;52.102;5.242;2023-05-10T01:10:49;73.8;;;32.71;;
32451;SDS011;45528;52.102;5.242;2023-05-10T01:14:01;77.3;;;33.71;;
32451;SDS011;45528;52.102;5.242;2023-05-10T01:15:39;79.91;;;33.5;;
32451;SDS011;45528;52.102;5.242;2023-05-10T01:17:16;77.41;;;34.1;;
32451;SDS011;45528;52.102;5.242;2023-05-10T01:20:31;71.2;;;33.9;;
32451;SDS011;45528;52.102;5.242;2023-05-10T01:22:25;68.3;;;33.0;;
32451;SDS011;45528;52.102;5.242;2023-05-10T01:24:35;85.6;;;34.81;;
32451;SDS011;45528;52.102;5.242;2023-05-10T01:28:08;69.41;;;31.2;;
32451;SDS011;45528;52.102;5.242;2023-05-10T01:30:05;66.91;;;31.4;;
32451;SDS011;45528;52.102;5.242;2023-05-10T01:32:03;71.61;;;32.3;;
32451;SDS011;45528;52.102;5.242;2023-05-10T01:33:52;63.5;;;30.8;;
32451;SDS011;45528;52.102;5.242;2023-05-10T01:37:20;59.8;;;30.2;;
32451;SDS011;45528;52.102;5.242;2023-05-10T01:39:02;58.1;;;28.7;;
32451;SDS011;45528;52.102;5.242;2023-05-10T01:40:48;65.41;;;30.0;;
32451;SDS011;45528;52.102;5.242;2023-05-10T01:42:38;68.7;;;31.1;;
32451;SDS011;45528;52.102;5.242;2023-05-10T01:44:24;67.0;;;30.6;;
32451;SDS011;45528;52.102;5.242;2023-05-10T01:47:54;62.9;;;29.2;;
32451;SDS011;45528;52.102;5.242;2023-05-10T01:49:39;61.7;;;29.8;;
32451;SDS011;45528;52.102;5.242;2023-05-10T01:51:19;65.91;;;30.7;;
32451;SDS011;45528;52.102;5.242;2023-05-10T01:53:00;71.0;;;30.0;;
32451;SDS011;45528;52.102;5.242;2023-05-10T01:56:18;81.0;;;31.2;;
32451;SDS011;45528;52.102;5.242;2023-05-10T01:58:01;68.41;;;29.2;;
32451;SDS011;45528;52.102;5.242;2023-05-10T01:59:40;66.1;;;31.2;;
32451;SDS011;45528;52.102;5.242;2023-05-10T02:01:21;68.2;;;31.0;;
32451;SDS011;45528;52.102;5.242;2023-05-10T02:04:39;75.5;;;32.5;;
32451;SDS011;45528;52.102;5.242;2023-05-10T02:06:18;73.7;;;33.3;;
32451;SDS011;45528;52.102;5.242;2023-05-10T02:07:57;73.8;;;31.7;;
32451;SDS011;45528;52.102;5.242;2023-05-10T02:09:35;61.9;;;30.7;;
32451;SDS011;45528;52.102;5.242;2023-05-10T02:12:53;69.5;;;32.0;;
32451;SDS011;45528;52.102;5.242;2023-05-10T02:14:30;74.11;;;33.6;;
32451;SDS011;45528;52.102;5.242;2023-05-10T02:16:10;88.4;;;34.71;;
32451;SDS011;45528;52.102;5.242;2023-05-10T02:17:49;71.91;;;32.9;;
32451;SDS011;45528;52.102;5.242;2023-05-10T02:21:08;76.3;;;34.71;;
32451;SDS011;45528;52.102;5.242;2023-05-10T02:22:45;76.41;;;34.0;;
32451;SDS011;45528;52.102;5.242;2023-05-10T02:24:24;69.7;;;33.5;;
32451;SDS011;45528;52.102;5.242;2023-05-10T02:27:39;76.7;;;34.1;;
32451;SDS011;45528;52.102;5.242;2023-05-10T02:29:18;91.2;;;35.0;;
32451;SDS011;45528;52.102;5.242;2023-05-10T02:30:55;78.2;;;33.21;;
32451;SDS011;45528;52.102;5.242;2023-05-10T02:32:32;74.11;;;33.0;;
32451;SDS011;45528;52.102;5.242;2023-05-10T02:35:49;90.3;;;34.1;;
32451;SDS011;45528;52.102;5.242;2023-05-10T02:37:26;85.5;;;33.3;;
32451;SDS011;45528;52.102;5.242;2023-05-10T02:39:04;88.0;;;33.6;;
32451;SDS011;45528;52.102;5.242;2023-05-10T02:42:22;80.11;;;34.21;;
32451;SDS011;45528;52.102;5.242;2023-05-10T02:44:04;79.61;;;34.71;;
32451;SDS011;45528;52.102;5.242;2023-05-10T02:45:43;88.5;;;35.31;;
32451;SDS011;45528;52.102;5.242;2023-05-10T02:47:23;111.4;;;35.0;;
32451;SDS011;45528;52.102;5.242;2023-05-10T02:50:37;99.1;;;35.4;;
32451;SDS011;45528;52.102;5.242;2023-05-10T02:52:19;82.5;;;33.21;;
32451;SDS011;45528;52.102;5.242;2023-05-10T02:54:00;94.6;;;36.0;;
32451;SDS011;45528;52.102;5.242;2023-05-10T02:55:57;92.1;;;35.0;;
32451;SDS011;45528;52.102;5.242;2023-05-10T02:57:38;112.6;;;35.9;;
32451;SDS011;45528;52.102;5.242;2023-05-10T03:00:53;119.8;;;35.6;;
32451;SDS011;45528;52.102;5.242;2023-05-10T03:02:29;123.4;;;38.71;;
32451;SDS011;45528;52.102;5.242;2023-05-10T03:04:05;105.3;;;36.9;;
32451;SDS011;45528;52.102;5.242;2023-05-10T03:07:19;106.1;;;37.4;;
32451;SDS011;45528;52.102;5.242;2023-05-10T03:08:55;98.2;;;36.21;;
32451;SDS011;45528;52.102;5.242;2023-05-10T03:10:31;98.1;;;37.31;;
32451;SDS011;45528;52.102;5.242;2023-05-10T03:12:13;111.0;;;37.81;;
32451;SDS011;45528;52.102;5.242;2023-05-10T03:15:53;105.5;;;37.5;;
32451;SDS011;45528;52.102;5.242;2023-05-10T03:17:39;102.9;;;38.1;;
32451;SDS011;45528;52.102;5.242;2023-05-10T03:19:24;81.91;;;34.21;;
32451;SDS011;45528;52.102;5.242;2023-05-10T03:21:07;98.2;;;36.9;;
32451;SDS011;45528;52.102;5.242;2023-05-10T03:22:46;82.0;;;36.71;;
32451;SDS011;45528;52.102;5.242;2023-05-10T03:26:04;90.2;;;37.21;;
32451;SDS011;45528;52.102;5.242;2023-05-10T03:27:43;90.6;;;37.81;;
32451;SDS011;45528;52.102;5.242;2023-05-10T03:29:20;87.7;;;37.21;;
32451;SDS011;45528;52.102;5.242;2023-05-10T03:30:59;86.7;;;36.21;;
32451;SDS011;45528;52.102;5.242;2023-05-10T03:34:11;88.9;;;37.0;;
32451;SDS011;45528;52.102;5.242;2023-05-10T03:35:47;96.1;;;36.5;;
32451;SDS011;45528;52.102;5.242;2023-05-10T03:37:23;86.0;;;36.21;;
32451;SDS011;45528;52.102;5.242;2023-05-10T03:40:35;84.1;;;35.31;;
32451;SDS011;45528;52.102;5.242;2023-05-10T03:42:11;93.0;;;35.9;;
32451;SDS011;45528;52.102;5.242;2023-05-10T03:43:48;92.3;;;35.1;;
32451;SDS011;45528;52.102;5.242;2023-05-10T03:47:00;85.3;;;36.6;;
32451;SDS011;45528;52.102;5.242;2023-05-10T03:48:36;90.2;;;35.9;;
32451;SDS011;45528;52.102;5.242;2023-05-10T03:50:13;85.2;;;35.0;;
32451;SDS011;45528;52.102;5.242;2023-05-10T03:53:25;101.0;;;35.9;;
32451;SDS011;45528;52.102;5.242;2023-05-10T03:55:01;105.1;;;35.21;;
32451;SDS011;45528;52.102;5.242;2023-05-10T03:56:38;112.6;;;37.71;;
32451;SDS011;45528;52.102;5.242;2023-05-10T03:58:14;91.2;;;35.4;;
32451;SDS011;45528;52.102;5.242;2023-05-10T04:01:27;107.0;;;36.4;;
32451;SDS011;45528;52.102;5.242;2023-05-10T04:03:03;96.9;;;36.71;;
32451;SDS011;45528;52.102;5.242;2023-05-10T04:04:39;90.9;;;35.5;;
32451;SDS011;45528;52.102;5.242;2023-05-10T04:13:13;88.0;;;35.21;;
32451;SDS011;45528;52.102;5.242;2023-05-10T04:16:25;102.6;;;37.21;;
32451;SDS011;45528;52.102;5.242;2023-05-10T04:18:01;91.2;;;35.71;;
32451;SDS011;45528;52.102;5.242;2023-05-10T04:19:37;94.5;;;38.31;;
32451;SDS011;45528;52.102;5.242;2023-05-10T04:21:14;89.8;;;35.21;;
32451;SDS011;45528;52.102;5.242;2023-05-10T04:24:26;119.4;;;40.6;;
32451;SDS011;45528;52.102;5.242;2023-05-10T04:26:02;99.0;;;38.0;;
32451;SDS011;45528;52.102;5.242;2023-05-10T04:27:38;95.7;;;37.4;;
32451;SDS011;45528;52.102;5.242;2023-05-10T04:30:50;94.1;;;37.81;;
32451;SDS011;45528;52.102;5.242;2023-05-10T04:32:27;100.4;;;37.0;;
32451;SDS011;45528;52.102;5.242;2023-05-10T04:34:03;91.5;;;37.81;;
32451;SDS011;45528;52.102;5.242;2023-05-10T04:37:15;95.3;;;36.0;;
32451;SDS011;45528;52.102;5.242;2023-05-10T04:38:51;98.6;;;37.31;;
32451;SDS011;45528;52.102;5.242;2023-05-10T04:40:27;108.2;;;39.21;;
32451;SDS011;45528;52.102;5.242;2023-05-10T04:43:39;105.1;;;39.6;;
32451;SDS011;45528;52.102;5.242;2023-05-10T04:45:16;111.2;;;39.71;;
32451;SDS011;45528;52.102;5.242;2023-05-10T04:46:52;112.8;;;39.6;;
32451;SDS011;45528;52.102;5.242;2023-05-10T04:48:28;98.5;;;38.0;;
32451;SDS011;45528;52.102;5.242;2023-05-10T04:51:42;92.5;;;38.6;;
32451;SDS011;45528;52.102;5.242;2023-05-10T04:53:18;99.3;;;38.9;;
32451;SDS011;45528;52.102;5.242;2023-05-10T04:54:54;93.3;;;38.4;;
32451;SDS011;45528;52.102;5.242;2023-05-10T04:58:07;90.0;;;38.5;;
32451;SDS011;45528;52.102;5.242;2023-05-10T04:59:43;90.1;;;37.9;;
32451;SDS011;45528;52.102;5.242;2023-05-10T05:01:19;100.2;;;40.0;;
32451;SDS011;45528;52.102;5.242;2023-05-10T05:04:31;96.7;;;38.4;;
32451;SDS011;45528;52.102;5.242;2023-05-10T05:06:07;94.1;;;38.81;;
32451;SDS011;45528;52.102;5.242;2023-05-10T05:07:43;84.7;;;37.6;;
32451;SDS011;45528;52.102;5.242;2023-05-10T05:09:20;88.6;;;39.21;;
32451;SDS011;45528;52.102;5.242;2023-05-10T05:12:32;94.3;;;38.9;;
32451;SDS011;45528;52.102;5.242;2023-05-10T05:14:08;87.5;;;38.81;;
32451;SDS011;45528;52.102;5.242;2023-05-10T05:15:44;95.3;;;39.71;;
32451;SDS011;45528;52.102;5.242;2023-05-10T05:18:57;79.61;;;40.1;;
32451;SDS011;45528;52.102;5.242;2023-05-10T05:20:37;94.4;;;41.1;;
32451;SDS011;45528;52.102;5.242;2023-05-10T05:22:16;77.7;;;38.9;;
32451;SDS011;45528;52.102;5.242;2023-05-10T05:25:31;80.61;;;38.81;;
32451;SDS011;45528;52.102;5.242;2023-05-10T05:27:07;78.5;;;39.5;;
32451;SDS011;45528;52.102;5.242;2023-05-10T05:28:42;77.8;;;38.31;;
32451;SDS011;45528;52.102;5.242;2023-05-10T05:30:18;77.8;;;38.31;;
32451;SDS011;45528;52.102;5.242;2023-05-10T05:33:32;82.6;;;38.9;;
32451;SDS011;45528;52.102;5.242;2023-05-10T05:35:09;85.3;;;37.71;;
32451;SDS011;45528;52.102;5.242;2023-05-10T05:36:45;72.41;;;36.1;;
32451;SDS011;45528;52.102;5.242;2023-05-10T05:39:59;78.2;;;38.31;;
32451;SDS011;45528;52.102;5.242;2023-05-10T05:41:37;78.41;;;37.9;;
32451;SDS011;45528;52.102;5.242;2023-05-10T05:43:15;72.41;;;35.1;;
32451;SDS011;45528;52.102;5.242;2023-05-10T05:44:53;73.7;;;35.21;;
32451;SDS011;45528;52.102;5.242;2023-05-10T05:48:08;65.5;;;32.8;;
32451;SDS011;45528;52.102;5.242;2023-05-10T05:49:46;65.3;;;33.21;;
32451;SDS011;45528;52.102;5.242;2023-05-10T05:51:24;65.3;;;33.21;;
32451;SDS011;45528;52.102;5.242;2023-05-10T05:54:37;69.7;;;33.5;;
32451;SDS011;45528;52.102;5.242;2023-05-10T05:56:14;66.7;;;34.71;;
32451;SDS011;45528;52.102;5.242;2023-05-10T05:57:52;79.91;;;35.31;;
32451;SDS011;45528;52.102;5.242;2023-05-10T06:01:07;72.91;;;35.4;;
32451;SDS011;45528;52.102;5.242;2023-05-10T06:02:45;78.61;;;36.1;;
32451;SDS011;45528;52.102;5.242;2023-05-10T06:04:23;68.91;;;34.31;;
32451;SDS011;45528;52.102;5.242;2023-05-10T06:06:01;67.3;;;32.6;;
32451;SDS011;45528;52.102;5.242;2023-05-10T06:09:16;70.7;;;32.71;;
32451;SDS011;45528;52.102;5.242;2023-05-10T06:10:53;68.3;;;31.0;;
32451;SDS011;45528;52.102;5.242;2023-05-10T06:12:30;62.2;;;29.6;;
32451;SDS011;45528;52.102;5.242;2023-05-10T06:15:45;57.5;;;28.1;;
32451;SDS011;45528;52.102;5.242;2023-05-10T06:19:00;59.0;;;27.2;;
32451;SDS011;45528;52.102;5.242;2023-05-10T06:20:38;52.6;;;27.2;;
32451;SDS011;45528;52.102;5.242;2023-05-10T06:23:55;51.9;;;26.9;;
32451;SDS011;45528;52.102;5.242;2023-05-10T06:25:33;53.2;;;27.3;;
32451;SDS011;45528;52.102;5.242;2023-05-10T06:27:11;49.6;;;25.5;;
32451;SDS011;45528;52.102;5.242;2023-05-10T06:28:48;52.6;;;23.1;;
32451;SDS011;45528;52.102;5.242;2023-05-10T06:32:04;43.0;;;21.8;;
32451;SDS011;45528;52.102;5.242;2023-05-10T06:33:41;43.1;;;21.6;;
32451;SDS011;45528;52.102;5.242;2023-05-10T06:35:19;39.21;;;21.0;;
32451;SDS011;45528;52.102;5.242;2023-05-10T06:38:35;38.31;;;19.8;;
32451;SDS011;45528;52.102;5.242;2023-05-10T06:40:13;33.21;;;17.0;;
32451;SDS011;45528;52.102;5.242;2023-05-10T06:41:51;30.0;;;17.8;;
32451;SDS011;45528;52.102;5.242;2023-05-10T06:43:28;34.5;;;18.0;;
32451;SDS011;45528;52.102;5.242;2023-05-10T06:46:44;33.71;;;17.7;;
32451;SDS011;45528;52.102;5.242;2023-05-10T06:48:21;33.71;;;17.41;;
32451;SDS011;45528;52.102;5.242;2023-05-10T06:49:58;30.9;;;16.3;;
32451;SDS011;45528;52.102;5.242;2023-05-10T06:53:11;30.9;;;16.2;;
32451;SDS011;45528;52.102;5.242;2023-05-10T06:54:49;32.1;;;16.3;;
32451;SDS011;45528;52.102;5.242;2023-05-10T06:56:26;26.5;;;15.1;;
32451;SDS011;45528;52.102;5.242;2023-05-10T06:59:40;29.8;;;15.4;;
32451;SDS011;45528;52.102;5.242;2023-05-10T07:01:18;29.2;;;14.6;;
32451;SDS011;45528;52.102;5.242;2023-05-10T07:02:56;24.5;;;15.0;;
32451;SDS011;45528;52.102;5.242;2023-05-10T07:04:32;24.5;;;14.7;;
32451;SDS011;45528;52.102;5.242;2023-05-10T07:07:45;27.6;;;15.3;;
32451;SDS011;45528;52.102;5.242;2023-05-10T07:09:23;26.9;;;15.0;;
32451;SDS011;45528;52.102;5.242;2023-05-10T07:11:01;27.8;;;14.8;;
32451;SDS011;45528;52.102;5.242;2023-05-10T07:14:18;30.2;;;15.7;;
32451;SDS011;45528;52.102;5.242;2023-05-10T07:15:56;24.6;;;14.3;;
32451;SDS011;45528;52.102;5.242;2023-05-10T07:17:33;24.5;;;15.0;;
32451;SDS011;45528;52.102;5.242;2023-05-10T07:19:11;24.8;;;15.2;;
32451;SDS011;45528;52.102;5.242;2023-05-10T07:22:26;25.5;;;14.0;;
32451;SDS011;45528;52.102;5.242;2023-05-10T07:24:03;25.4;;;14.7;;
32451;SDS011;45528;52.102;5.242;2023-05-10T07:25:41;22.5;;;14.3;;
32451;SDS011;45528;52.102;5.242;2023-05-10T07:28:56;25.2;;;14.8;;
32451;SDS011;45528;52.102;5.242;2023-05-10T07:30:33;25.3;;;14.6;;
32451;SDS011;45528;52.102;5.242;2023-05-10T07:32:11;24.9;;;14.6;;
32451;SDS011;45528;52.102;5.242;2023-05-10T07:33:47;23.2;;;13.5;;
32451;SDS011;45528;52.102;5.242;2023-05-10T07:37:02;22.7;;;13.9;;
32451;SDS011;45528;52.102;5.242;2023-05-10T07:38:40;26.7;;;14.0;;
32451;SDS011;45528;52.102;5.242;2023-05-10T07:40:18;25.7;;;14.7;;
32451;SDS011;45528;52.102;5.242;2023-05-10T07:43:33;24.2;;;14.0;;
32451;SDS011;45528;52.102;5.242;2023-05-10T07:45:11;20.7;;;12.6;;
32451;SDS011;45528;52.102;5.242;2023-05-10T07:46:48;21.9;;;13.8;;
32451;SDS011;45528;52.102;5.242;2023-05-10T07:48:26;23.2;;;13.5;;
32451;SDS011;45528;52.102;5.242;2023-05-10T07:51:40;24.8;;;13.7;;
32451;SDS011;45528;52.102;5.242;2023-05-10T07:53:18;19.41;;;12.0;;
32451;SDS011;45528;52.102;5.242;2023-05-10T07:54:55;24.4;;;12.9;;
32451;SDS011;45528;52.102;5.242;2023-05-10T07:58:09;22.3;;;11.7;;
32451;SDS011;45528;52.102;5.242;2023-05-10T07:59:45;20.41;;;11.5;;
32451;SDS011;45528;52.102;5.242;2023-05-10T08:01:24;19.91;;;11.5;;
32451;SDS011;45528;52.102;5.242;2023-05-10T08:03:02;19.2;;;11.2;;
32451;SDS011;45528;52.102;5.242;2023-05-10T08:06:17;21.1;;;11.7;;
32451;SDS011;45528;52.102;5.242;2023-05-10T08:07:55;17.7;;;11.5;;
32451;SDS011;45528;52.102;5.242;2023-05-10T08:09:33;17.91;;;11.3;;
32451;SDS011;45528;52.102;5.242;2023-05-10T08:12:48;20.0;;;11.9;;
32451;SDS011;45528;52.102;5.242;2023-05-10T08:14:25;18.41;;;11.5;;
32451;SDS011;45528;52.102;5.242;2023-05-10T08:16:04;18.7;;;11.6;;
32451;SDS011;45528;52.102;5.242;2023-05-10T08:17:42;19.91;;;11.6;;
32451;SDS011;45528;52.102;5.242;2023-05-10T08:20:58;21.9;;;12.4;;
32451;SDS011;45528;52.102;5.242;2023-05-10T08:22:35;19.7;;;11.8;;
32451;SDS011;45528;52.102;5.242;2023-05-10T08:24:12;20.3;;;12.8;;
32451;SDS011;45528;52.102;5.242;2023-05-10T08:27:26;18.8;;;11.4;;
32451;SDS011;45528;52.102;5.242;2023-05-10T08:29:04;21.0;;;11.9;;
32451;SDS011;45528;52.102;5.242;2023-05-10T08:30:40;18.0;;;11.1;;
32451;SDS011;45528;52.102;5.242;2023-05-10T08:32:18;26.2;;;13.1;;
32451;SDS011;45528;52.102;5.242;2023-05-10T08:35:33;22.6;;;12.3;;
32451;SDS011;45528;52.102;5.242;2023-05-10T08:37:11;18.3;;;11.4;;
32451;SDS011;45528;52.102;5.242;2023-05-10T08:38:49;21.3;;;11.8;;
32451;SDS011;45528;52.102;5.242;2023-05-10T08:42:06;19.11;;;11.5;;
32451;SDS011;45528;52.102;5.242;2023-05-10T08:43:46;20.7;;;12.0;;
32451;SDS011;45528;52.102;5.242;2023-05-10T08:45:25;19.3;;;11.4;;
32451;SDS011;45528;52.102;5.242;2023-05-10T08:47:08;22.5;;;12.2;;
32451;SDS011;45528;52.102;5.242;2023-05-10T08:50:26;18.11;;;11.7;;
32451;SDS011;45528;52.102;5.242;2023-05-10T08:52:06;19.5;;;12.2;;
32451;SDS011;45528;52.102;5.242;2023-05-10T08:53:44;19.0;;;12.3;;
32451;SDS011;45528;52.102;5.242;2023-05-10T08:55:22;17.3;;;11.5;;
32451;SDS011;45528;52.102;5.242;2023-05-10T08:58:38;22.6;;;12.6;;
32451;SDS011;45528;52.102;5.242;2023-05-10T09:00:15;21.9;;;12.3;;
32451;SDS011;45528;52.102;5.242;2023-05-10T09:01:55;21.4;;;12.5;;
32451;SDS011;45528;52.102;5.242;2023-05-10T09:05:12;18.7;;;12.2;;
32451;SDS011;45528;52.102;5.242;2023-05-10T09:06:48;21.6;;;13.4;;
32451;SDS011;45528;52.102;5.242;2023-05-10T09:08:26;20.2;;;12.5;;
32451;SDS011;45528;52.102;5.242;2023-05-10T09:10:04;22.2;;;13.3;;
32451;SDS011;45528;52.102;5.242;2023-05-10T09:13:21;21.6;;;12.8;;
32451;SDS011;45528;52.102;5.242;2023-05-10T09:15:00;27.3;;;13.9;;
32451;SDS011;45528;52.102;5.242;2023-05-10T09:16:40;21.9;;;13.1;;
32451;SDS011;45528;52.102;5.242;2023-05-10T09:18:18;20.7;;;13.6;;
32451;SDS011;45528;52.102;5.242;2023-05-10T09:21:36;23.6;;;12.6;;
32451;SDS011;45528;52.102;5.242;2023-05-10T09:23:13;17.91;;;11.6;;
32451;SDS011;45528;52.102;5.242;2023-05-10T09:25:03;18.8;;;12.2;;
32451;SDS011;45528;52.102;5.242;2023-05-10T09:26:45;23.4;;;12.4;;
32451;SDS011;45528;52.102;5.242;2023-05-10T09:30:02;20.3;;;12.3;;
32451;SDS011;45528;52.102;5.242;2023-05-10T09:31:44;19.41;;;11.8;;
32451;SDS011;45528;52.102;5.242;2023-05-10T09:33:23;18.3;;;11.4;;
32451;SDS011;45528;52.102;5.242;2023-05-10T09:36:52;20.7;;;12.0;;
32451;SDS011;45528;52.102;5.242;2023-05-10T09:38:33;19.11;;;11.4;;
32451;SDS011;45528;52.102;5.242;2023-05-10T09:40:23;17.41;;;10.9;;
32451;SDS011;45528;52.102;5.242;2023-05-10T09:42:02;20.8;;;11.5;;
32451;SDS011;45528;52.102;5.242;2023-05-10T09:43:42;21.4;;;11.1;;
32451;SDS011;45528;52.102;5.242;2023-05-10T09:46:57;20.7;;;11.3;;
32451;SDS011;45528;52.102;5.242;2023-05-10T09:48:39;17.11;;;10.8;;
32451;SDS011;45528;52.102;5.242;2023-05-10T09:50:19;15.4;;;9.9;;
32451;SDS011;45528;52.102;5.242;2023-05-10T09:51:59;15.6;;;9.5;;
32451;SDS011;45528;52.102;5.242;2023-05-10T09:55:17;14.5;;;9.81;;
32451;SDS011;45528;52.102;5.242;2023-05-10T09:56:55;13.8;;;10.0;;
32451;SDS011;45528;52.102;5.242;2023-05-10T09:58:35;15.5;;;9.81;;
32451;SDS011;45528;52.102;5.242;2023-05-10T10:00:16;13.8;;;8.6;;
32451;SDS011;45528;52.102;5.242;2023-05-10T10:03:40;11.3;;;8.5;;
32451;SDS011;45528;52.102;5.242;2023-05-10T10:05:19;15.0;;;9.4;;
32451;SDS011;45528;52.102;5.242;2023-05-10T10:06:58;15.9;;;8.81;;
32451;SDS011;45528;52.102;5.242;2023-05-10T10:08:36;13.6;;;8.31;;
32451;SDS011;45528;52.102;5.242;2023-05-10T10:11:53;15.6;;;8.71;;
32451;SDS011;45528;52.102;5.242;2023-05-10T10:13:31;13.8;;;8.31;;
32451;SDS011;45528;52.102;5.242;2023-05-10T10:15:09;13.2;;;8.31;;
32451;SDS011;45528;52.102;5.242;2023-05-10T10:18:26;13.8;;;8.81;;
32451;SDS011;45528;52.102;5.242;2023-05-10T10:20:05;14.5;;;8.6;;
32451;SDS011;45528;52.102;5.242;2023-05-10T10:21:42;13.0;;;7.8;;
32451;SDS011;45528;52.102;5.242;2023-05-10T10:23:20;12.3;;;7.7;;
32451;SDS011;45528;52.102;5.242;2023-05-10T10:26:36;11.3;;;7.3;;
32451;SDS011;45528;52.102;5.242;2023-05-10T10:28:19;11.7;;;7.5;;
32451;SDS011;45528;52.102;5.242;2023-05-10T10:30:05;11.6;;;7.1;;
32451;SDS011;45528;52.102;5.242;2023-05-10T10:31:55;12.3;;;7.3;;
32451;SDS011;45528;52.102;5.242;2023-05-10T10:33:49;10.1;;;5.9;;
32451;SDS011;45528;52.102;5.242;2023-05-10T10:37:14;10.5;;;6.1;;
32451;SDS011;45528;52.102;5.242;2023-05-10T10:38:55;7.9;;;5.9;;
32451;SDS011;45528;52.102;5.242;2023-05-10T10:40:33;9.21;;;5.5;;
32451;SDS011;45528;52.102;5.242;2023-05-10T10:42:11;8.2;;;5.0;;
32451;SDS011;45528;52.102;5.242;2023-05-10T10:45:26;9.31;;;5.0;;
32451;SDS011;45528;52.102;5.242;2023-05-10T10:47:04;9.4;;;4.7;;
32451;SDS011;45528;52.102;5.242;2023-05-10T10:48:47;8.0;;;5.11;;
32451;SDS011;45528;52.102;5.242;2023-05-10T10:50:25;8.0;;;5.0;;
32451;SDS011;45528;52.102;5.242;2023-05-10T10:54:08;8.1;;;4.8;;
32451;SDS011;45528;52.102;5.242;2023-05-10T10:55:46;9.31;;;5.7;;
32451;SDS011;45528;52.102;5.242;2023-05-10T10:57:25;10.5;;;6.2;;
32451;SDS011;45528;52.102;5.242;2023-05-10T10:59:03;11.3;;;5.8;;
32451;SDS011;45528;52.102;5.242;2023-05-10T11:02:48;10.8;;;5.8;;
32451;SDS011;45528;52.102;5.242;2023-05-10T11:04:26;10.8;;;5.9;;
32451;SDS011;45528;52.102;5.242;2023-05-10T11:06:02;9.81;;;5.9;;
32451;SDS011;45528;52.102;5.242;2023-05-10T11:07:45;9.1;;;5.8;;
32451;SDS011;45528;52.102;5.242;2023-05-10T11:09:26;10.0;;;6.4;;
32451;SDS011;45528;52.102;5.242;2023-05-10T11:12:50;8.81;;;5.6;;
32451;SDS011;45528;52.102;5.242;2023-05-10T11:14:27;10.21;;;5.3;;
32451;SDS011;45528;52.102;5.242;2023-05-10T11:16:11;11.4;;;5.8;;
32451;SDS011;45528;52.102;5.242;2023-05-10T11:17:50;8.6;;;5.2;;
32451;SDS011;45528;52.102;5.242;2023-05-10T11:21:03;9.4;;;5.6;;
32451;SDS011;45528;52.102;5.242;2023-05-10T11:22:55;8.2;;;5.11;;
32451;SDS011;45528;52.102;5.242;2023-05-10T11:24:31;9.5;;;5.6;;
32451;SDS011;45528;52.102;5.242;2023-05-10T11:26:07;9.21;;;6.0;;
32451;SDS011;45528;52.102;5.242;2023-05-10T11:29:23;9.9;;;5.8;;
32451;SDS011;45528;52.102;5.242;2023-05-10T11:30:59;9.1;;;5.5;;
32451;SDS011;45528;52.102;5.242;2023-05-10T11:32:36;9.5;;;5.3;;
32451;SDS011;45528;52.102;5.242;2023-05-10T11:36:00;11.4;;;5.2;;
32451;SDS011;45528;52.102;5.242;2023-05-10T11:37:36;8.2;;;4.8;;
32451;SDS011;45528;52.102;5.242;2023-05-10T11:39:12;7.2;;;4.8;;
32451;SDS011;45528;52.102;5.242;2023-05-10T11:40:49;8.71;;;4.91;;
32451;SDS011;45528;52.102;5.242;2023-05-10T11:44:04;7.4;;;4.2;;
32451;SDS011;45528;52.102;5.242;2023-05-10T11:45:41;7.1;;;4.1;;
32451;SDS011;45528;52.102;5.242;2023-05-10T11:47:18;7.2;;;3.9;;
32451;SDS011;45528;52.102;5.242;2023-05-10T11:50:34;6.2;;;4.0;;
32451;SDS011;45528;52.102;5.242;2023-05-10T11:52:10;6.9;;;3.7;;
32451;SDS011;45528;52.102;5.242;2023-05-10T11:53:46;8.71;;;4.2;;
32451;SDS011;45528;52.102;5.242;2023-05-10T11:55:24;6.8;;;4.1;;
32451;SDS011;45528;52.102;5.242;2023-05-10T11:58:37;7.4;;;4.41;;
32451;SDS011;45528;52.102;5.242;2023-05-10T12:00:15;6.6;;;3.7;;
32451;SDS011;45528;52.102;5.242;2023-05-10T12:01:51;7.3;;;3.9;;
32451;SDS011;45528;52.102;5.242;2023-05-10T12:05:05;6.7;;;3.6;;
32451;SDS011;45528;52.102;5.242;2023-05-10T12:06:42;7.9;;;3.8;;
32451;SDS011;45528;52.102;5.242;2023-05-10T12:08:20;6.6;;;3.7;;
32451;SDS011;45528;52.102;5.242;2023-05-10T12:10:06;7.0;;;3.2;;
32451;SDS011;45528;52.102;5.242;2023-05-10T12:13:19;6.2;;;3.3;;
32451;SDS011;45528;52.102;5.242;2023-05-10T12:14:56;4.8;;;2.8;;
32451;SDS011;45528;52.102;5.242;2023-05-10T12:16:32;7.7;;;3.3;;
32451;SDS011;45528;52.102;5.242;2023-05-10T12:19:46;7.0;;;3.3;;
32451;SDS011;45528;52.102;5.242;2023-05-10T12:21:22;4.7;;;2.7;;
32451;SDS011;45528;52.102;5.242;2023-05-10T12:22:58;5.4;;;3.2;;
32451;SDS011;45528;52.102;5.242;2023-05-10T12:24:34;6.1;;;2.9;;
32451;SDS011;45528;52.102;5.242;2023-05-10T12:27:50;7.1;;;3.1;;
32451;SDS011;45528;52.102;5.242;2023-05-10T12:29:29;6.9;;;3.0;;
32451;SDS011;45528;52.102;5.242;2023-05-10T12:31:06;6.0;;;3.1;;
32451;SDS011;45528;52.102;5.242;2023-05-10T12:34:23;6.9;;;3.5;;
32451;SDS011;45528;52.102;5.242;2023-05-10T12:36:00;6.0;;;3.4;;
32451;SDS011;45528;52.102;5.242;2023-05-10T12:37:37;8.81;;;3.3;;
32451;SDS011;45528;52.102;5.242;2023-05-10T12:39:14;5.8;;;3.2;;
32451;SDS011;45528;52.102;5.242;2023-05-10T12:42:26;7.8;;;3.5;;
32451;SDS011;45528;52.102;5.242;2023-05-10T12:44:02;6.3;;;3.5;;
32451;SDS011;45528;52.102;5.242;2023-05-10T12:45:38;7.0;;;4.5;;